createdAt,value
2023-03-30T00:01:04.478Z,3.60
2023-03-30T00:02:38.749Z,3.60
2023-03-30T00:04:12.714Z,3.61
2023-03-30T00:06:05.585Z,3.61
2023-03-30T00:07:47.379Z,3.61
2023-03-30T00:09:30.713Z,3.61
2023-03-30T00:10:55.839Z,3.61
2023-03-30T00:12:32.284Z,3.62
2023-03-30T00:14:17.835Z,3.62
2023-03-30T00:15:51.554Z,3.62
2023-03-30T00:17:13.048Z,3.63
2023-03-30T00:19:07.049Z,3.62
2023-03-30T00:20:29.000Z,3.63
2023-03-30T00:22:13.892Z,3.63
2023-03-30T00:23:56.023Z,3.63
2023-03-30T00:25:29.380Z,3.73
2023-03-30T00:27:03.228Z,4.88
2023-03-30T00:28:38.815Z,6.25
2023-03-30T00:30:24.025Z,7.41
2023-03-30T00:32:10.665Z,7.26
2023-03-30T00:33:49.743Z,6.81
2023-03-30T00:35:24.336Z,6.35
2023-03-30T00:37:05.354Z,5.99
2023-03-30T00:38:29.395Z,5.72
2023-03-30T00:39:53.107Z,5.53
2023-03-30T00:41:43.011Z,5.34
2023-03-30T00:43:16.308Z,5.18
2023-03-30T00:44:47.189Z,5.05
2023-03-30T00:46:40.551Z,4.93
2023-03-30T00:48:21.745Z,4.81
2023-03-30T00:49:55.326Z,4.72
2023-03-30T00:51:30.948Z,4.63
2023-03-30T00:53:17.974Z,4.56
2023-03-30T00:54:58.634Z,4.49
2023-03-30T00:56:40.121Z,4.43
2023-03-30T00:58:25.187Z,4.37
2023-03-30T01:00:01.718Z,4.33
2023-03-30T01:01:39.060Z,4.27
2023-03-30T01:03:24.633Z,4.23
2023-03-30T01:06:58.014Z,4.16
2023-03-30T01:08:45.521Z,4.14
2023-03-30T01:10:18.734Z,4.11
2023-03-30T01:11:40.444Z,4.10
2023-03-30T01:13:17.011Z,4.09
2023-03-30T01:14:51.485Z,4.17
2023-03-30T01:16:27.506Z,5.17
2023-03-30T01:18:12.424Z,6.84
2023-03-30T01:19:57.326Z,7.79
2023-03-30T01:21:50.451Z,7.54
2023-03-30T01:23:39.007Z,6.98
2023-03-30T01:25:22.391Z,6.50
2023-03-30T01:27:07.891Z,6.15
2023-03-30T01:28:43.653Z,5.86
2023-03-30T01:30:05.710Z,5.67
2023-03-30T01:31:46.203Z,5.50
2023-03-30T01:33:31.121Z,5.33
2023-03-30T01:35:11.008Z,5.19
2023-03-30T01:36:37.146Z,5.05
2023-03-30T01:38:03.975Z,4.94
2023-03-30T01:39:51.611Z,4.84
2023-03-30T01:41:36.878Z,4.74
2023-03-30T01:43:17.874Z,4.65
2023-03-30T01:44:53.997Z,4.58
2023-03-30T01:46:42.197Z,4.61
2023-03-30T01:48:18.628Z,5.63
2023-03-30T01:49:48.427Z,7.03
2023-03-30T01:51:23.852Z,8.13
2023-03-30T01:52:58.494Z,8.04
2023-03-30T01:54:34.081Z,7.57
2023-03-30T01:56:10.186Z,7.14
2023-03-30T01:57:55.622Z,6.66
2023-03-30T01:59:27.294Z,6.32
2023-03-30T02:01:04.272Z,6.04
2023-03-30T02:02:50.463Z,5.83
2023-03-30T02:04:35.954Z,5.63
2023-03-30T02:06:16.684Z,5.44
2023-03-30T02:08:02.499Z,5.30
2023-03-30T02:09:48.578Z,5.15
2023-03-30T02:11:24.556Z,5.01
2023-03-30T02:12:58.012Z,4.91
2023-03-30T02:14:33.640Z,4.81
2023-03-30T02:16:19.397Z,4.73
2023-03-30T02:17:54.633Z,4.90
2023-03-30T02:19:40.072Z,6.23
2023-03-30T02:21:24.831Z,7.81
2023-03-30T02:23:06.192Z,8.40
2023-03-30T02:24:36.314Z,8.02
2023-03-30T02:26:09.656Z,7.51
2023-03-30T02:27:36.829Z,7.01
2023-03-30T02:29:10.130Z,6.58
2023-03-30T02:30:55.266Z,6.27
2023-03-30T02:32:22.946Z,5.98
2023-03-30T02:33:59.189Z,5.75
2023-03-30T02:35:34.880Z,5.58
2023-03-30T02:36:57.056Z,5.43
2023-03-30T02:38:28.287Z,5.32
2023-03-30T02:40:08.859Z,5.19
2023-03-30T02:41:42.217Z,5.09
2023-03-30T02:43:03.937Z,5.00
2023-03-30T02:44:37.358Z,4.96
2023-03-30T02:46:18.538Z,5.67
2023-03-30T02:47:53.007Z,7.00
2023-03-30T02:49:38.098Z,8.37
2023-03-30T02:51:11.385Z,8.60
2023-03-30T02:53:05.182Z,8.07
2023-03-30T02:54:51.026Z,7.49
2023-03-30T02:56:12.673Z,7.05
2023-03-30T02:58:15.587Z,6.67
2023-03-30T03:00:08.772Z,6.28
2023-03-30T03:01:42.867Z,6.06
2023-03-30T03:03:21.805Z,5.89
2023-03-30T03:04:59.152Z,5.72
2023-03-30T03:06:55.746Z,5.56
2023-03-30T03:08:29.085Z,5.43
2023-03-30T03:10:13.945Z,5.38
2023-03-30T03:11:59.050Z,6.22
2023-03-30T03:13:48.644Z,7.83
2023-03-30T03:15:22.408Z,8.95
2023-03-30T03:17:28.750Z,8.70
2023-03-30T03:19:04.578Z,8.08
2023-03-30T03:20:50.396Z,7.58
2023-03-30T03:22:38.329Z,7.12
2023-03-30T03:24:19.800Z,6.76
2023-03-30T03:26:28.929Z,6.41
2023-03-30T03:28:04.790Z,6.18
2023-03-30T03:29:48.716Z,5.99
2023-03-30T03:31:22.107Z,5.84
2023-03-30T03:32:57.672Z,5.71
2023-03-30T03:34:33.675Z,5.66
2023-03-30T03:36:22.620Z,6.56
2023-03-30T03:38:11.676Z,8.16
2023-03-30T03:39:56.837Z,9.20
2023-03-30T03:41:50.398Z,8.95
2023-03-30T03:43:26.550Z,8.33
2023-03-30T03:45:15.864Z,7.77
2023-03-30T03:47:02.605Z,7.22
2023-03-30T03:48:24.745Z,6.92
2023-03-30T03:50:09.852Z,6.63
2023-03-30T03:51:46.739Z,6.38
2023-03-30T03:53:27.758Z,6.15
2023-03-30T03:55:04.659Z,5.93
2023-03-30T03:56:49.954Z,5.77
2023-03-30T03:58:20.970Z,5.70
2023-03-30T03:59:51.061Z,6.41
2023-03-30T04:01:35.810Z,7.90
2023-03-30T04:03:05.457Z,9.15
2023-03-30T04:04:50.263Z,9.20
2023-03-30T04:06:30.796Z,8.63
2023-03-30T04:08:04.534Z,8.02
2023-03-30T04:09:30.917Z,7.60
2023-03-30T04:11:23.433Z,7.17
2023-03-30T04:13:08.733Z,6.78
2023-03-30T04:15:23.596Z,6.45
2023-03-30T04:17:15.501Z,6.22
2023-03-30T04:19:27.887Z,6.00
2023-03-30T04:21:25.231Z,6.69
2023-03-30T04:22:50.123Z,8.02
2023-03-30T04:24:55.225Z,9.36
2023-03-30T04:26:43.824Z,9.26
2023-03-30T04:28:36.285Z,8.63
2023-03-30T04:30:47.902Z,7.95
2023-03-30T04:32:34.660Z,7.46
2023-03-30T04:34:40.838Z,7.04
2023-03-30T04:36:23.214Z,6.77
2023-03-30T04:38:02.597Z,6.52
2023-03-30T04:39:41.671Z,6.33
2023-03-30T04:41:53.863Z,6.32
2023-03-30T04:43:55.176Z,7.87
2023-03-30T04:45:53.924Z,9.32
2023-03-30T04:47:50.271Z,9.51
2023-03-30T04:49:38.831Z,8.85
2023-03-30T04:52:06.657Z,8.02
2023-03-30T04:53:46.921Z,7.49
2023-03-30T04:56:07.476Z,7.03
2023-03-30T04:57:41.767Z,6.73
2023-03-30T05:00:05.701Z,6.42
2023-03-30T05:02:11.660Z,6.26
2023-03-30T05:03:45.156Z,7.16
2023-03-30T05:05:35.201Z,8.58
2023-03-30T05:07:33.897Z,9.70
2023-03-30T05:09:18.170Z,9.43
2023-03-30T05:11:14.877Z,8.65
2023-03-30T05:13:16.038Z,8.02
2023-03-30T05:15:09.770Z,7.53
2023-03-30T05:17:04.448Z,7.10
2023-03-30T05:18:33.396Z,6.84
2023-03-30T05:20:52.948Z,6.54
2023-03-30T05:22:40.776Z,6.64
2023-03-30T05:24:48.480Z,8.23
2023-03-30T05:26:47.371Z,9.75
2023-03-30T05:28:54.086Z,9.74
2023-03-30T05:31:08.803Z,8.86
2023-03-30T05:33:15.014Z,8.13
2023-03-30T05:35:15.084Z,7.57
2023-03-30T05:37:00.042Z,7.22
2023-03-30T05:38:51.507Z,6.96
2023-03-30T05:41:19.272Z,6.89
2023-03-30T05:42:56.633Z,8.15
2023-03-30T05:44:42.348Z,9.43
2023-03-30T05:46:35.779Z,10.14
2023-03-30T05:48:29.077Z,9.62
2023-03-30T05:50:46.629Z,8.75
2023-03-30T05:52:40.384Z,8.14
2023-03-30T05:55:10.537Z,7.55
2023-03-30T05:57:25.647Z,7.15
2023-03-30T05:59:13.544Z,7.19
2023-03-30T06:01:19.316Z,8.67
2023-03-30T06:02:55.374Z,10.06
2023-03-30T06:04:32.579Z,10.42
2023-03-30T06:06:06.144Z,9.95
2023-03-30T06:08:00.205Z,9.31
2023-03-30T06:09:26.645Z,8.70
2023-03-30T06:11:08.640Z,8.24
2023-03-30T06:12:41.101Z,7.84
2023-03-30T06:14:22.052Z,7.56
2023-03-30T06:16:06.725Z,7.28
2023-03-30T06:17:35.675Z,7.78
2023-03-30T06:19:20.767Z,9.05
2023-03-30T06:20:57.471Z,10.43
2023-03-30T06:22:31.955Z,10.77
2023-03-30T06:24:36.574Z,10.16
2023-03-30T06:26:11.197Z,9.55
2023-03-30T06:27:59.833Z,8.94
2023-03-30T06:29:33.179Z,8.46
2023-03-30T06:31:02.707Z,8.14
2023-03-30T06:32:38.770Z,7.86
2023-03-30T06:34:51.085Z,7.55
2023-03-30T06:36:45.267Z,7.86
2023-03-30T06:38:21.404Z,9.17
2023-03-30T06:39:59.142Z,10.45
2023-03-30T06:41:24.071Z,10.85
2023-03-30T06:42:57.056Z,10.49
2023-03-30T06:44:34.969Z,9.85
2023-03-30T06:46:21.152Z,9.26
2023-03-30T06:47:54.259Z,8.76
2023-03-30T06:49:31.215Z,8.45
2023-03-30T06:51:13.003Z,8.09
2023-03-30T06:52:49.191Z,7.85
2023-03-30T06:54:23.432Z,7.68
2023-03-30T06:55:56.804Z,8.17
2023-03-30T06:57:37.818Z,9.52
2023-03-30T06:59:34.320Z,10.84
2023-03-30T07:01:27.190Z,10.99
2023-03-30T07:03:23.116Z,10.34
2023-03-30T07:05:11.624Z,9.75
2023-03-30T07:07:05.563Z,9.17
2023-03-30T07:08:46.482Z,8.82
2023-03-30T07:10:33.463Z,8.52
2023-03-30T07:12:19.906Z,8.30
2023-03-30T07:14:05.444Z,8.12
2023-03-30T07:15:50.723Z,8.07
2023-03-30T07:17:38.361Z,9.05
2023-03-30T07:19:11.853Z,10.57
2023-03-30T07:20:47.983Z,11.40
2023-03-30T07:22:23.138Z,11.27
2023-03-30T07:24:08.410Z,10.77
2023-03-30T07:25:54.355Z,10.23
2023-03-30T07:27:50.086Z,9.79
2023-03-30T07:29:36.949Z,9.45
2023-03-30T07:31:22.803Z,9.21
2023-03-30T07:32:52.093Z,9.05
2023-03-30T07:34:13.696Z,8.93
2023-03-30T07:36:03.547Z,8.84
2023-03-30T07:37:39.465Z,8.73
2023-03-30T07:39:24.375Z,8.64
2023-03-30T07:40:58.402Z,8.67
2023-03-30T07:42:42.042Z,9.44
2023-03-30T07:44:17.783Z,11.07
2023-03-30T07:46:03.111Z,12.02
2023-03-30T07:47:41.066Z,11.91
2023-03-30T07:49:16.716Z,11.39
2023-03-30T07:50:52.623Z,10.91
2023-03-30T07:52:38.916Z,10.52
2023-03-30T07:54:13.738Z,10.24
2023-03-30T07:55:47.564Z,10.02
2023-03-30T07:57:39.458Z,9.89
2023-03-30T07:59:13.601Z,9.78
2023-03-30T08:00:54.638Z,9.71
2023-03-30T08:02:43.271Z,9.65
2023-03-30T08:04:19.111Z,9.62
2023-03-30T08:05:55.355Z,9.61
2023-03-30T08:07:17.843Z,9.61
2023-03-30T08:08:51.077Z,9.62
2023-03-30T08:10:13.571Z,9.63
2023-03-30T08:11:37.561Z,9.67
2023-03-30T08:13:01.629Z,9.80
2023-03-30T08:14:30.732Z,10.72
2023-03-30T08:16:11.657Z,12.17
2023-03-30T08:17:33.733Z,13.06
2023-03-30T08:18:55.782Z,13.07
2023-03-30T08:20:22.555Z,12.76
2023-03-30T08:21:51.554Z,12.36
2023-03-30T08:23:24.674Z,12.05
2023-03-30T08:24:57.202Z,11.75
2023-03-30T08:26:30.922Z,11.55
2023-03-30T08:28:11.947Z,11.44
2023-03-30T08:29:56.336Z,11.35
2023-03-30T08:31:32.861Z,11.28
2023-03-30T08:33:17.768Z,11.23
2023-03-30T08:35:03.291Z,11.20
2023-03-30T08:36:39.016Z,11.16
2023-03-30T08:38:08.213Z,11.12
2023-03-30T08:39:41.704Z,11.08
2023-03-30T08:41:22.332Z,11.05
2023-03-30T08:42:57.840Z,11.02
2023-03-30T08:44:31.134Z,10.99
2023-03-30T08:46:06.387Z,10.97
2023-03-30T08:47:31.183Z,10.95
2023-03-30T08:49:02.537Z,10.94
2023-03-30T08:50:35.897Z,10.94
2023-03-30T08:52:09.182Z,10.93
2023-03-30T08:53:45.136Z,10.93
2023-03-30T08:55:38.669Z,10.92
2023-03-30T08:57:24.004Z,10.94
2023-03-30T08:58:57.543Z,10.95
2023-03-30T09:00:32.197Z,10.98
2023-03-30T09:01:53.783Z,11.00
2023-03-30T09:03:29.890Z,11.01
2023-03-30T09:05:06.217Z,11.01
2023-03-30T09:06:46.985Z,10.98
2023-03-30T09:08:40.551Z,10.98
2023-03-30T09:10:35.411Z,10.95
2023-03-30T09:12:08.654Z,10.93
2023-03-30T09:13:54.848Z,10.91
2023-03-30T09:15:24.000Z,10.90
2023-03-30T09:17:17.757Z,10.89
2023-03-30T09:18:51.017Z,10.88
2023-03-30T09:20:27.817Z,10.86
2023-03-30T09:22:12.802Z,10.84
2023-03-30T09:23:35.985Z,10.82
2023-03-30T09:25:21.543Z,10.81
2023-03-30T09:26:54.916Z,10.81
2023-03-30T09:28:21.296Z,10.84
2023-03-30T09:29:55.790Z,10.86
2023-03-30T09:31:41.035Z,11.45
2023-03-30T09:33:10.382Z,12.78
2023-03-30T09:34:55.422Z,14.05
2023-03-30T09:36:44.299Z,14.22
2023-03-30T09:38:21.489Z,13.83
2023-03-30T09:40:02.599Z,13.47
2023-03-30T09:41:45.376Z,13.19
2023-03-30T09:43:30.484Z,12.91
2023-03-30T09:45:15.496Z,12.75
2023-03-30T09:46:49.988Z,12.66
2023-03-30T09:48:23.545Z,12.62
2023-03-30T09:49:57.158Z,12.60
2023-03-30T09:51:31.518Z,12.56
2023-03-30T09:52:53.699Z,12.52
2023-03-30T09:54:39.128Z,12.45
2023-03-30T09:56:13.068Z,12.37
2023-03-30T09:57:44.687Z,12.28
2023-03-30T09:59:18.201Z,12.20
2023-03-30T10:00:59.147Z,12.11
2023-03-30T10:02:40.718Z,12.01
2023-03-30T10:04:16.215Z,11.93
2023-03-30T10:05:49.998Z,11.90
2023-03-30T10:07:18.868Z,11.89
2023-03-30T10:09:13.401Z,11.87
2023-03-30T10:10:48.848Z,11.84
2023-03-30T10:12:24.874Z,11.81
2023-03-30T10:14:10.210Z,11.79
2023-03-30T10:15:46.089Z,11.76
2023-03-30T10:17:31.018Z,11.74
2023-03-30T10:18:55.710Z,11.73
2023-03-30T10:20:41.408Z,11.73
2023-03-30T10:22:28.153Z,11.74
2023-03-30T10:24:12.768Z,11.76
2023-03-30T10:25:48.735Z,11.79
2023-03-30T10:27:37.391Z,11.83
2023-03-30T10:29:18.119Z,11.89
2023-03-30T10:31:11.490Z,11.93
2023-03-30T10:32:56.572Z,11.97
2023-03-30T10:34:48.886Z,12.00
2023-03-30T10:36:11.340Z,12.03
2023-03-30T10:37:52.118Z,12.05
2023-03-30T10:39:23.402Z,12.08
2023-03-30T10:41:12.410Z,12.12
2023-03-30T10:42:33.887Z,12.15
2023-03-30T10:44:07.181Z,12.19
2023-03-30T10:45:36.557Z,12.21
2023-03-30T10:47:12.265Z,12.24
2023-03-30T10:48:55.407Z,12.26
2023-03-30T10:50:28.791Z,12.30
2023-03-30T10:52:14.054Z,12.35
2023-03-30T10:54:08.512Z,12.38
2023-03-30T10:55:44.112Z,12.39
2023-03-30T10:57:18.069Z,12.40
2023-03-30T10:59:03.241Z,12.40
2023-03-30T11:00:46.611Z,12.41
2023-03-30T11:02:08.705Z,12.49
2023-03-30T11:03:37.808Z,13.28
2023-03-30T11:05:01.937Z,14.54
2023-03-30T11:06:55.419Z,15.65
2023-03-30T11:08:35.998Z,15.80
2023-03-30T11:10:17.565Z,15.53
2023-03-30T11:11:51.122Z,15.17
2023-03-30T11:13:25.087Z,14.90
2023-03-30T11:15:17.999Z,14.65
2023-03-30T11:16:58.662Z,14.39
2023-03-30T11:18:32.619Z,14.21
2023-03-30T11:20:07.051Z,14.07
2023-03-30T11:21:42.890Z,13.91
2023-03-30T11:23:28.393Z,13.79
2023-03-30T11:24:52.040Z,13.68
2023-03-30T11:26:16.742Z,13.56
2023-03-30T11:27:50.367Z,13.45
2023-03-30T11:29:24.226Z,13.37
2023-03-30T11:31:09.724Z,13.31
2023-03-30T11:32:52.616Z,13.28
2023-03-30T11:34:14.121Z,13.26
2023-03-30T11:35:47.146Z,13.23
2023-03-30T11:37:21.000Z,13.21
2023-03-30T11:38:56.535Z,13.19
2023-03-30T11:40:29.562Z,13.17
2023-03-30T11:42:10.919Z,13.18
2023-03-30T11:43:55.991Z,13.20
2023-03-30T11:45:49.393Z,13.23
2023-03-30T11:47:13.869Z,13.26
2023-03-30T11:49:04.935Z,13.30
2023-03-30T11:50:29.834Z,13.35
2023-03-30T11:51:52.654Z,13.39
2023-03-30T11:53:28.114Z,13.46
2023-03-30T11:55:03.669Z,13.53
2023-03-30T11:56:38.672Z,13.60
2023-03-30T11:58:23.678Z,13.65
2023-03-30T12:00:09.471Z,13.71
2023-03-30T12:01:45.561Z,13.78
2023-03-30T12:03:21.513Z,13.84
2023-03-30T12:04:55.126Z,13.89
2023-03-30T12:06:17.281Z,13.90
2023-03-30T12:07:50.821Z,13.88
2023-03-30T12:09:26.739Z,13.85
2023-03-30T12:10:57.996Z,13.83
2023-03-30T12:12:42.225Z,13.80
2023-03-30T12:14:22.784Z,13.78
2023-03-30T12:15:55.836Z,13.77
2023-03-30T12:17:42.029Z,13.74
2023-03-30T12:19:27.458Z,13.71
2023-03-30T12:21:00.914Z,13.66
2023-03-30T12:22:34.864Z,13.64
2023-03-30T12:24:15.644Z,13.64
2023-03-30T12:25:56.432Z,13.64
2023-03-30T12:27:37.291Z,13.64
2023-03-30T12:30:49.957Z,13.63
2023-03-30T12:32:13.837Z,13.63
2023-03-30T12:33:47.148Z,13.62
2023-03-30T12:35:28.170Z,13.60
2023-03-30T12:37:09.941Z,13.59
2023-03-30T12:38:55.360Z,13.57
2023-03-30T12:40:24.475Z,13.55
2023-03-30T12:41:48.729Z,13.53
2023-03-30T12:43:22.021Z,13.51
2023-03-30T12:44:55.477Z,13.49
2023-03-30T12:46:37.548Z,13.47
2023-03-30T12:48:22.718Z,13.42
2023-03-30T12:49:46.947Z,13.36
2023-03-30T12:51:10.943Z,13.30
2023-03-30T12:52:32.905Z,13.22
2023-03-30T12:54:09.012Z,13.15
2023-03-30T12:56:02.723Z,13.08
2023-03-30T12:57:27.055Z,13.01
2023-03-30T12:59:00.682Z,12.94
2023-03-30T13:00:53.846Z,12.91
2023-03-30T13:02:23.027Z,12.87
2023-03-30T13:03:57.833Z,12.84
2023-03-30T13:05:19.910Z,12.82
2023-03-30T13:06:53.314Z,12.81
2023-03-30T13:08:29.384Z,12.79
2023-03-30T13:09:51.427Z,12.78
2023-03-30T13:11:13.405Z,12.78
2023-03-30T13:12:37.900Z,12.78
2023-03-30T13:14:02.160Z,12.80
2023-03-30T13:15:23.942Z,12.81
2023-03-30T13:16:45.762Z,12.83
2023-03-30T13:18:21.874Z,12.96
2023-03-30T13:20:02.651Z,13.95
2023-03-30T13:21:36.301Z,15.42
2023-03-30T13:23:15.060Z,16.08
2023-03-30T13:24:51.186Z,15.98
2023-03-30T13:26:35.469Z,15.61
2023-03-30T13:28:20.753Z,15.22
2023-03-30T13:29:42.174Z,14.94
2023-03-30T13:31:26.983Z,14.70
2023-03-30T13:32:50.619Z,14.50
2023-03-30T13:34:24.303Z,14.33
2023-03-30T13:35:48.035Z,14.20
2023-03-30T13:37:10.140Z,14.11
2023-03-30T13:38:51.628Z,14.03
2023-03-30T13:40:37.950Z,13.91
2023-03-30T13:42:15.447Z,13.83
2023-03-30T13:43:50.372Z,13.77
2023-03-30T13:45:24.179Z,13.71
2023-03-30T13:46:59.711Z,13.66
2023-03-30T13:48:52.957Z,13.60
2023-03-30T13:50:26.836Z,13.54
2023-03-30T13:52:02.088Z,13.49
2023-03-30T13:53:28.445Z,13.44
2023-03-30T13:54:57.928Z,13.40
2023-03-30T13:56:22.003Z,13.35
2023-03-30T13:57:44.705Z,13.30
2023-03-30T13:59:06.632Z,13.26
2023-03-30T14:00:48.644Z,13.21
2023-03-30T14:02:12.789Z,13.33
2023-03-30T14:03:54.080Z,14.28
2023-03-30T14:05:16.034Z,15.57
2023-03-30T14:06:51.588Z,16.27
2023-03-30T14:08:15.503Z,16.14
2023-03-30T14:10:00.488Z,15.66
2023-03-30T14:11:33.970Z,15.11
2023-03-30T14:12:55.629Z,14.71
2023-03-30T14:14:41.760Z,14.34
2023-03-30T14:16:03.888Z,13.96
2023-03-30T14:17:28.595Z,13.73
2023-03-30T14:18:50.640Z,14.07
2023-03-30T14:20:20.061Z,14.95
2023-03-30T14:22:05.246Z,16.07
2023-03-30T14:23:32.609Z,16.75
2023-03-30T14:24:56.759Z,16.54
2023-03-30T14:26:20.697Z,15.96
2023-03-30T14:27:44.655Z,15.35
2023-03-30T14:29:11.297Z,14.80
2023-03-30T14:30:34.995Z,14.32
2023-03-30T14:32:07.400Z,13.93
2023-03-30T14:33:42.851Z,13.84
2023-03-30T14:35:12.375Z,14.74
2023-03-30T14:36:33.792Z,15.67
2023-03-30T14:37:57.178Z,16.49
2023-03-30T14:39:44.439Z,16.98
2023-03-30T14:41:17.941Z,16.48
2023-03-30T14:43:02.710Z,15.73
2023-03-30T14:44:52.188Z,14.98
2023-03-30T14:46:26.238Z,14.31
2023-03-30T14:48:07.978Z,14.47
2023-03-30T14:49:30.278Z,15.44
2023-03-30T14:50:54.156Z,16.26
2023-03-30T14:52:30.021Z,16.87
2023-03-30T14:53:59.015Z,16.60
2023-03-30T14:55:32.786Z,15.85
2023-03-30T14:57:02.108Z,15.24
2023-03-30T14:58:35.552Z,14.60
2023-03-30T14:59:57.273Z,14.17
2023-03-30T15:01:23.574Z,14.05
2023-03-30T15:02:45.533Z,14.71
2023-03-30T15:04:08.011Z,15.65
2023-03-30T15:05:30.077Z,16.52
2023-03-30T15:07:14.825Z,16.99
2023-03-30T15:08:53.400Z,16.59
2023-03-30T15:10:15.315Z,15.90
2023-03-30T15:11:36.885Z,15.35
2023-03-30T15:12:58.722Z,14.87
2023-03-30T15:14:20.947Z,14.47
2023-03-30T15:16:03.484Z,14.15
2023-03-30T15:17:28.198Z,14.11
2023-03-30T15:19:13.353Z,15.02
2023-03-30T15:20:46.606Z,16.12
2023-03-30T15:22:22.319Z,16.89
2023-03-30T15:23:58.516Z,16.62
2023-03-30T15:25:51.788Z,15.97
2023-03-30T15:27:37.107Z,15.23
2023-03-30T15:29:06.157Z,14.68
2023-03-30T15:30:51.213Z,14.26
2023-03-30T15:32:36.728Z,13.87
2023-03-30T15:34:12.097Z,13.90
2023-03-30T15:35:58.060Z,15.01
2023-03-30T15:37:52.621Z,16.28
2023-03-30T15:39:46.196Z,16.76
2023-03-30T15:41:31.522Z,16.16
2023-03-30T15:43:16.330Z,15.47
2023-03-30T15:44:50.645Z,14.94
2023-03-30T15:46:40.891Z,14.45
2023-03-30T15:48:16.719Z,14.02
2023-03-30T15:49:50.597Z,13.90
2023-03-30T15:51:36.142Z,14.68
2023-03-30T15:53:09.813Z,15.93
2023-03-30T15:54:50.513Z,16.68
2023-03-30T15:56:32.018Z,16.46
2023-03-30T15:58:03.969Z,15.85
2023-03-30T15:59:49.293Z,15.24
2023-03-30T16:01:28.000Z,14.72
2023-03-30T16:03:02.049Z,14.31
2023-03-30T16:04:36.095Z,13.90
2023-03-30T16:06:12.080Z,13.81
2023-03-30T16:07:38.556Z,14.56
2023-03-30T16:09:23.068Z,15.75
2023-03-30T16:11:04.058Z,16.75
2023-03-30T16:12:57.545Z,16.63
2023-03-30T16:14:30.940Z,15.90
2023-03-30T16:16:16.179Z,15.29
2023-03-30T16:17:57.010Z,14.76
2023-03-30T16:19:38.655Z,14.31
2023-03-30T16:21:24.376Z,13.87
2023-03-30T16:23:09.721Z,13.88
2023-03-30T16:24:43.214Z,14.96
2023-03-30T16:26:16.887Z,15.94
2023-03-30T16:28:11.591Z,16.74
2023-03-30T16:29:33.260Z,16.43
2023-03-30T16:31:06.927Z,15.82
2023-03-30T16:32:40.431Z,15.23
2023-03-30T16:34:01.798Z,14.79
2023-03-30T16:35:42.259Z,14.37
2023-03-30T16:37:11.815Z,14.01
2023-03-30T16:38:47.168Z,13.97
2023-03-30T16:40:21.012Z,14.86
2023-03-30T16:41:55.049Z,15.84
2023-03-30T16:43:25.214Z,16.75
2023-03-30T16:44:46.793Z,16.69
2023-03-30T16:46:20.403Z,16.23
2023-03-30T16:47:42.811Z,15.60
2023-03-30T16:49:17.038Z,15.10
2023-03-30T16:51:02.887Z,14.57
2023-03-30T16:52:35.077Z,14.14
2023-03-30T16:54:30.335Z,13.85
2023-03-30T16:55:57.961Z,14.50
2023-03-30T16:57:20.052Z,15.52
2023-03-30T16:58:51.559Z,16.52
2023-03-30T17:00:36.964Z,16.82
2023-03-30T17:02:08.459Z,16.35
2023-03-30T17:03:32.837Z,15.76
2023-03-30T17:05:17.960Z,15.15
2023-03-30T17:06:39.878Z,14.68
2023-03-30T17:08:13.039Z,14.27
2023-03-30T17:09:37.629Z,14.01
2023-03-30T17:11:13.327Z,14.38
2023-03-30T17:12:59.565Z,15.46
2023-03-30T17:14:53.453Z,16.70
2023-03-30T17:16:29.371Z,16.95
2023-03-30T17:18:14.454Z,16.35
2023-03-30T17:19:59.490Z,15.60
2023-03-30T17:23:42.835Z,14.72
2023-03-30T17:25:28.444Z,15.58
2023-03-30T17:27:13.387Z,16.64
2023-03-30T17:28:42.089Z,17.38
2023-03-30T17:30:16.039Z,17.40
2023-03-30T17:31:56.913Z,16.73
2023-03-30T17:33:19.263Z,15.99
2023-03-30T17:34:59.828Z,15.29
2023-03-30T17:36:21.789Z,14.74
2023-03-30T17:38:07.899Z,14.88
2023-03-30T17:39:57.473Z,15.85
2023-03-30T17:41:46.472Z,16.92
2023-03-30T17:43:20.371Z,17.47
2023-03-30T17:45:05.195Z,17.00
2023-03-30T17:46:39.069Z,16.26
2023-03-30T17:48:08.405Z,15.51
2023-03-30T17:49:42.004Z,14.91
2023-03-30T17:51:31.583Z,14.64
2023-03-30T17:53:17.009Z,15.45
2023-03-30T17:55:11.538Z,16.53
2023-03-30T17:56:53.679Z,17.34
2023-03-30T17:58:29.172Z,17.12
2023-03-30T18:00:14.437Z,16.41
2023-03-30T18:01:55.855Z,15.63
2023-03-30T18:03:41.677Z,15.04
2023-03-30T18:05:23.238Z,14.56
2023-03-30T18:07:16.629Z,15.20
2023-03-30T18:08:59.469Z,16.25
2023-03-30T18:10:53.467Z,17.23
2023-03-30T18:12:23.174Z,17.13
2023-03-30T18:14:13.459Z,16.44
2023-03-30T18:15:43.389Z,15.63
2023-03-30T18:17:17.061Z,15.08
2023-03-30T18:18:45.522Z,14.89
2023-03-30T18:20:19.196Z,15.55
2023-03-30T18:21:53.235Z,16.61
2023-03-30T18:23:26.980Z,17.31
2023-03-30T18:24:50.718Z,17.65
2023-03-30T18:26:35.800Z,17.15
2023-03-30T18:28:08.004Z,16.36
2023-03-30T18:29:33.843Z,15.65
2023-03-30T18:31:03.218Z,15.09
2023-03-30T18:32:46.563Z,15.02
2023-03-30T18:34:30.330Z,15.92
2023-03-30T18:36:13.293Z,16.80
2023-03-30T18:37:43.246Z,17.54
2023-03-30T18:39:30.240Z,17.34
2023-03-30T18:41:05.193Z,16.61
2023-03-30T18:42:58.608Z,15.75
2023-03-30T18:44:28.189Z,15.00
2023-03-30T18:45:51.953Z,14.92
2023-03-30T18:47:13.741Z,15.54
2023-03-30T18:49:07.557Z,16.46
2023-03-30T18:50:53.257Z,17.37
2023-03-30T18:52:34.880Z,17.59
2023-03-30T18:54:04.108Z,16.98
2023-03-30T18:55:28.293Z,16.17
2023-03-30T18:56:52.362Z,15.46
2023-03-30T18:58:26.365Z,15.10
2023-03-30T19:00:02.689Z,15.60
2023-03-30T19:01:25.510Z,16.43
2023-03-30T19:03:14.300Z,17.15
2023-03-30T19:05:08.557Z,17.73
2023-03-30T19:06:38.194Z,17.45
2023-03-30T19:08:07.322Z,16.62
2023-03-30T19:09:50.510Z,15.87
2023-03-30T19:11:20.156Z,15.14
2023-03-30T19:12:54.856Z,15.48
2023-03-30T19:14:29.028Z,16.18
2023-03-30T19:16:05.994Z,17.02
2023-03-30T19:17:31.013Z,17.53
2023-03-30T19:19:15.824Z,17.82
2023-03-30T19:21:05.674Z,17.22
2023-03-30T19:22:37.587Z,16.24
2023-03-30T19:24:13.853Z,15.36
2023-03-30T19:25:42.831Z,15.14
2023-03-30T19:27:07.658Z,15.65
2023-03-30T19:28:48.731Z,16.32
2023-03-30T19:30:24.403Z,17.05
2023-03-30T19:31:53.783Z,17.56
2023-03-30T19:33:16.364Z,17.68
2023-03-30T19:34:59.508Z,17.15
2023-03-30T19:36:40.991Z,16.18
2023-03-30T19:38:26.141Z,15.20
2023-03-30T19:40:11.486Z,15.11
2023-03-30T19:41:47.293Z,15.92
2023-03-30T19:43:16.448Z,16.68
2023-03-30T19:45:01.420Z,17.31
2023-03-30T19:46:23.875Z,17.77
2023-03-30T19:47:45.549Z,17.59
2023-03-30T19:49:21.765Z,16.77
2023-03-30T19:50:51.307Z,15.84
2023-03-30T19:52:26.924Z,15.16
2023-03-30T19:54:02.718Z,15.38
2023-03-30T19:55:55.520Z,16.16
2023-03-30T19:57:19.386Z,16.92
2023-03-30T19:59:04.585Z,17.42
2023-03-30T20:02:28.353Z,16.87
2023-03-30T20:04:01.807Z,15.94
2023-03-30T20:05:55.084Z,15.16
2023-03-30T20:07:19.461Z,15.36
2023-03-30T20:08:41.082Z,15.98
2023-03-30T20:10:14.300Z,16.66
2023-03-30T20:11:47.759Z,17.15
2023-03-30T20:13:35.038Z,17.60
2023-03-30T20:15:11.028Z,17.42
2023-03-30T20:16:35.167Z,16.60
2023-03-30T20:17:59.344Z,15.76
2023-03-30T20:19:34.490Z,15.08
2023-03-30T20:20:58.593Z,15.22
2023-03-30T20:22:22.410Z,15.84
2023-03-30T20:23:43.916Z,16.44
2023-03-30T20:25:16.140Z,16.97
2023-03-30T20:27:01.093Z,17.45
2023-03-30T20:28:45.853Z,17.55
2023-03-30T20:30:21.566Z,16.82
2023-03-30T20:31:55.938Z,15.88
2023-03-30T20:33:46.617Z,15.03
2023-03-30T20:35:37.376Z,15.30
2023-03-30T20:37:11.247Z,16.13
2023-03-30T20:38:53.105Z,16.67
2023-03-30T20:40:41.206Z,17.24
2023-03-30T20:42:08.227Z,17.40
2023-03-30T20:43:53.276Z,16.83
2023-03-30T20:45:26.199Z,15.78
2023-03-30T20:47:09.804Z,14.99
2023-03-30T20:48:50.770Z,15.09
2023-03-30T20:50:12.652Z,15.79
2023-03-30T20:51:46.060Z,16.44
2023-03-30T20:53:15.135Z,17.06
2023-03-30T20:54:37.663Z,17.41
2023-03-30T20:56:18.348Z,17.15
2023-03-30T20:57:40.337Z,16.38
2023-03-30T20:59:14.226Z,15.60
2023-03-30T21:00:36.250Z,14.88
2023-03-30T21:02:12.685Z,15.08
2023-03-30T21:03:58.177Z,15.84
2023-03-30T21:05:38.953Z,16.61
2023-03-30T21:07:14.760Z,17.17
2023-03-30T21:08:49.264Z,17.33
2023-03-30T21:10:18.715Z,16.69
2023-03-30T21:11:52.068Z,15.75
2023-03-30T21:13:25.575Z,14.92
2023-03-30T21:15:01.154Z,14.70
2023-03-30T21:16:46.498Z,15.34
2023-03-30T21:18:10.439Z,16.11
2023-03-30T21:19:44.071Z,16.70
2023-03-30T21:21:17.194Z,17.25
2023-03-30T21:22:38.921Z,17.12
2023-03-30T21:24:24.147Z,16.33
2023-03-30T21:25:46.018Z,15.45
2023-03-30T21:27:19.239Z,14.68
2023-03-30T21:28:41.673Z,14.59
2023-03-30T21:30:15.198Z,15.14